»·PEaware :: N72FA KVCV-KSNA

N72FA :: KVCV-KSNA

FLIGHT INFORMATION

Flight Status: Arrived
Operator: Privately registered:
United States
More flights under this callsign
Pilot: Fco Javier A. (25981)
Aircraft: CESSNA 172 SKYHAWK
(C172)
More flights by this aircraft type
Origin: KVCV Socal Logistics
United States
Destination: KSNA John Wayne-Orange Co
United States
More flights between these airports :: More routes between these airports
Route: KONT
File this flight plan on PilotEdge
Remarks: Learning English Numbers Slowly Please THANKS
Altitude:
(Current/Filed)
5,500ft
Speed:
(Current/Filed)
100kts
Departed: 01-Dec-19 10:36 AM
Arrived: 01-Dec-19 11:13 AM
Distance/Time
Traveled:
60nm/0:37
Distance/Time
To Go:
Arrived

Flight Plot

Page will automatically refresh every two minutes.

Flight plan parsing failed; only flown route is shown


Map Options




Map Legend


Flown Route
Filed Route
Departure Airport
Arrival Airport
Navaid (VOR, NDB)
Fix

Horizontal Profiles

Position Reports

Time Latitude Longitude Heading Altitude Ground
Speed
01-Dec-19 10:14 34.588333 -117.376341 313 2874ft 0kts
01-Dec-19 10:15 34.588333 -117.376341 313 2874ft 0kts
01-Dec-19 10:16 34.588333 -117.376341 313 2874ft 0kts
01-Dec-19 10:17 34.588333 -117.376341 313 2874ft 0kts
01-Dec-19 10:18 34.588333 -117.376341 313 2874ft 0kts
01-Dec-19 10:19 34.588333 -117.376341 313 2874ft 0kts
01-Dec-19 10:20 34.588333 -117.376341 313 2874ft 0kts
01-Dec-19 10:21 34.588333 -117.376341 313 2874ft 0kts
01-Dec-19 10:22 34.588333 -117.376341 313 2874ft 0kts
01-Dec-19 10:23 34.588333 -117.376341 313 2874ft 0kts
01-Dec-19 10:24 34.588333 -117.376341 313 2874ft 0kts
01-Dec-19 10:25 34.588333 -117.376341 313 2874ft 0kts
01-Dec-19 10:26 34.588333 -117.376341 313 2874ft 0kts
01-Dec-19 10:27 34.588333 -117.376341 313 2874ft 0kts
01-Dec-19 10:28 34.590059 -117.376191 44 2870ft 17kts
01-Dec-19 10:29 34.593275 -117.370619 89 2859ft 22kts
01-Dec-19 10:30 34.597525 -117.366983 11 2845ft 24kts
01-Dec-19 10:31 34.599137 -117.366618 6 2843ft 0kts
01-Dec-19 10:32 34.599137 -117.366618 6 2843ft 0kts
01-Dec-19 10:33 34.599137 -117.366618 6 2843ft 0kts
01-Dec-19 10:34 34.598886 -117.368479 225 2844ft 33kts
01-Dec-19 10:35 34.584070 -117.385361 216 3423ft 79kts
01-Dec-19 10:36 34.562767 -117.391012 188 4162ft 80kts
01-Dec-19 10:37 34.540755 -117.396179 191 4876ft 81kts
01-Dec-19 10:38 34.516749 -117.403536 193 5451ft 95kts
01-Dec-19 10:39 34.486644 -117.411623 192 5512ft 115kts
01-Dec-19 10:40 34.454590 -117.419892 194 5488ft 116kts
01-Dec-19 10:41 34.422978 -117.430034 192 5470ft 116kts
01-Dec-19 10:42 34.390749 -117.436313 186 5464ft 115kts
01-Dec-19 10:43 34.358687 -117.441955 192 5503ft 115kts
01-Dec-19 10:44 34.327900 -117.454195 199 5536ft 115kts
01-Dec-19 10:46 34.297242 -117.465908 191 5567ft 115kts
01-Dec-19 10:47 34.266653 -117.457439 140 5575ft 115kts
01-Dec-19 10:48 34.242910 -117.430997 139 5576ft 115kts
01-Dec-19 10:49 34.215743 -117.410397 159 5558ft 115kts
01-Dec-19 10:50 34.185890 -117.416745 231 5491ft 116kts
01-Dec-19 10:51 34.164128 -117.445216 224 5524ft 115kts
01-Dec-19 10:52 34.142611 -117.474377 231 5500ft 116kts
01-Dec-19 10:53 34.121384 -117.503596 228 5481ft 116kts
01-Dec-19 10:54 34.096353 -117.528140 213 5476ft 115kts
01-Dec-19 10:55 34.070453 -117.551306 218 5478ft 115kts
01-Dec-19 10:56 34.045249 -117.575570 219 5481ft 115kts
01-Dec-19 10:57 34.020432 -117.599879 220 5485ft 115kts
01-Dec-19 10:58 33.996337 -117.625606 222 5490ft 115kts
01-Dec-19 10:59 33.972683 -117.651943 216 5494ft 115kts
01-Dec-19 11:00 33.943055 -117.667062 203 5494ft 115kts
01-Dec-19 11:01 33.915379 -117.686703 213 5500ft 115kts
01-Dec-19 11:02 33.887551 -117.706292 204 5508ft 115kts
01-Dec-19 11:03 33.858044 -117.721690 204 5303ft 118kts
01-Dec-19 11:04 33.827947 -117.735018 196 4695ft 115kts
01-Dec-19 11:04 33.802299 -117.744237 199 3883ft 114kts
01-Dec-19 11:05 33.775676 -117.763581 237 2939ft 113kts
01-Dec-19 11:07 33.764298 -117.803016 225 2100ft 107kts
01-Dec-19 11:08 33.743735 -117.822859 212 1505ft 87kts
01-Dec-19 11:08 33.727472 -117.834287 208 1151ft 79kts
01-Dec-19 11:09 33.708976 -117.846279 207 761ft 71kts
01-Dec-19 11:11 33.689602 -117.858169 205 259ft 62kts
01-Dec-19 11:11 33.677187 -117.866037 207 60ft 46kts
01-Dec-19 11:12 33.673959 -117.867631 131 60ft 0kts
01-Dec-19 11:13 33.672291 -117.867979 210 60ft 14kts
01-Dec-19 11:14 33.671378 -117.867427 215 60ft 0kts

Navigation Log

Ident Type
Flight plan parsing failed, navigation log unavailable